Map

Track Data

SID SEASON NUMBER BASIN SUBBASIN NAME ISO_TIME NATURE LAT LON WMO_WIND WMO_PRES WMO_AGENCY TRACK_TYPE DIST2LAND LANDFALL IFLAG USA_AGENCY USA_ATCF_ID USA_LAT USA_LON USA_RECORD USA_STATUS USA_WIND USA_PRES USA_SSHS USA_R34_NE USA_R34_SE USA_R34_SW USA_R34_NW USA_R50_NE USA_R50_SE USA_R50_SW USA_R50_NW USA_R64_NE USA_R64_SE USA_R64_SW USA_R64_NW USA_POCI USA_ROCI USA_RMW USA_EYE TOKYO_LAT TOKYO_LON TOKYO_GRADE TOKYO_WIND TOKYO_PRES TOKYO_R50_DIR TOKYO_R50_LONG TOKYO_R50_SHORT TOKYO_R30_DIR TOKYO_R30_LONG TOKYO_R30_SHORT TOKYO_LAND CMA_LAT CMA_LON CMA_CAT CMA_WIND CMA_PRES HKO_LAT HKO_LON HKO_CAT HKO_WIND HKO_PRES NEWDELHI_LAT NEWDELHI_LON NEWDELHI_GRADE NEWDELHI_WIND NEWDELHI_PRES NEWDELHI_CI NEWDELHI_DP NEWDELHI_POCI REUNION_LAT REUNION_LON REUNION_TYPE REUNION_WIND REUNION_PRES REUNION_TNUM REUNION_CI REUNION_RMW REUNION_R34_NE REUNION_R34_SE REUNION_R34_SW REUNION_R34_NW REUNION_R50_NE REUNION_R50_SE REUNION_R50_SW REUNION_R50_NW REUNION_R64_NE REUNION_R64_SE REUNION_R64_SW REUNION_R64_NW BOM_LAT BOM_LON BOM_TYPE BOM_WIND BOM_PRES BOM_TNUM BOM_CI BOM_RMW BOM_R34_NE BOM_R34_SE BOM_R34_SW BOM_R34_NW BOM_R50_NE BOM_R50_SE BOM_R50_SW BOM_R50_NW BOM_R64_NE BOM_R64_SE BOM_R64_SW BOM_R64_NW BOM_ROCI BOM_POCI BOM_EYE BOM_POS_METHOD BOM_PRES_METHOD NADI_LAT NADI_LON NADI_CAT NADI_WIND NADI_PRES WELLINGTON_LAT WELLINGTON_LON WELLINGTON_WIND WELLINGTON_PRES DS824_LAT DS824_LON DS824_STAGE DS824_WIND DS824_PRES TD9636_LAT TD9636_LON TD9636_STAGE TD9636_WIND TD9636_PRES TD9635_LAT TD9635_LON TD9635_WIND TD9635_PRES TD9635_ROCI NEUMANN_LAT NEUMANN_LON NEUMANN_CLASS NEUMANN_WIND NEUMANN_PRES MLC_LAT MLC_LON MLC_CLASS MLC_WIND MLC_PRES USA_GUST BOM_GUST BOM_GUST_PER REUNION_GUST REUNION_GUST_PER USA_SEAHGT USA_SEARAD_NE USA_SEARAD_SE USA_SEARAD_SW USA_SEARAD_NW STORM_SPEED STORM_DIR
1979350N07153 1979 116 WP MM BEN 1979-12-16 05:00:00 NR 6.50000 152.500 main 1046 1042 __________O___ -1 6.50000 152.500 1 11 277
1979350N07153 1979 116 WP MM BEN 1979-12-16 06:00:00 NR 6.52177 152.310 main 1042 1039 __________P___ -1 6.52177 152.310 1 11 277
1979350N07153 1979 116 WP MM BEN 1979-12-16 09:00:00 NR 6.58752 151.742 main 1045 1042 __________P___ -1 6.58752 151.742 1 11 277
1979350N07153 1979 116 WP MM BEN 1979-12-16 12:00:00 NR 6.65573 151.176 main 1053 1048 __________P___ -1 6.65573 151.176 1 11 277
1979350N07153 1979 116 WP MM BEN 1979-12-16 15:00:00 NR 6.72874 150.617 main 1048 1041 __________P___ -1 6.72874 150.617 1 11 278
1979350N07153 1979 116 WP MM BEN 1979-12-16 18:00:00 NR 6.80888 150.066 main 1041 1032 __________P___ -1 6.80888 150.066 1 11 279
1979350N07153 1979 116 WP MM BEN 1979-12-16 21:00:00 NR 6.89851 149.526 main 1035 1030 __________P___ -1 6.89851 149.526 1 11 280
1979350N07153 1979 116 WP MM BEN 1979-12-17 00:00:00 TS 7.00000 149.000 main 1035 1031 O________OO___ jtwc_wp WP281979 7.00000 149.000 15 -1 7.00000 149.000 TC 15 7.00000 149.000 1 11 283
1979350N07153 1979 116 WP MM BEN 1979-12-17 03:00:00 TS 7.13736 148.494 main 1038 1038 P________PP___ WP281979 7.16011 148.500 15 -1 7.16011 148.500 TC 15 7.11462 148.488 1 10 285
1979350N07153 1979 116 WP MM BEN 1979-12-17 06:00:00 TS 7.27564 147.995 main 1055 1053 O________OP___ jtwc_wp WP281979 7.30000 148.000 15 -1 7.30000 148.000 TC 15 7.23910 147.988 1 10 285
1979350N07153 1979 116 WP MM BEN 1979-12-17 09:00:00 TS 7.39464 147.498 main 1064 1064 P________PP___ WP281979 7.40744 147.500 15 -1 7.40744 147.500 TC 15 7.36904 147.493 1 10 283
1979350N07153 1979 116 WP MM BEN 1979-12-17 12:00:00 TS 7.50000 147.000 main 1075 1075 O________OO___ jtwc_wp WP281979 7.50000 147.000 15 -1 7.50000 147.000 TC 15 7.50000 147.000 1 10 282
1979350N07153 1979 116 WP MM BEN 1979-12-17 15:00:00 TS 7.60320 146.504 main 1087 1087 P________PP___ WP281979 7.59244 146.500 15 -1 7.59244 146.500 TC 15 7.62473 146.512 1 10 282
1979350N07153 1979 116 WP MM BEN 1979-12-17 18:00:00 TS 7.71653 146.007 main 1100 1100 O________OP___ jtwc_wp WP281979 7.70000 146.000 15 -1 7.70000 146.000 TC 15 7.74960 146.022 1 10 285
1979350N07153 1979 116 WP MM BEN 1979-12-17 21:00:00 TS 7.85817 145.512 main 1127 1127 P________PP___ WP281979 7.84991 145.508 15 -1 7.84991 145.508 TC 15 7.87469 145.521 1 10 286
1979350N07153 1979 116 WP MM BEN 1979-12-18 00:00:00 TS 8.00000 145.000 main 1145 1145 O________OO___ jtwc_wp WP281979 8.00000 145.000 15 -1 8.00000 145.000 TC 15 8.00000 145.000 1 11 284
1979350N07153 1979 116 WP MM BEN 1979-12-18 03:00:00 TS 8.10819 144.464 main 1166 1166 P________PP___ WP281979 8.09992 144.465 15 -1 8.09992 144.465 TC 15 8.12473 144.463 1 11 281
1979350N07153 1979 116 WP MM BEN 1979-12-18 06:00:00 TS 8.21653 143.901 main 1192 1192 O________OP___ jtwc_wp WP281979 8.20000 143.900 15 -1 8.20000 143.900 TC 15 8.24958 143.902 1 12 282
1979350N07153 1979 116 WP MM BEN 1979-12-18 09:00:00 TS 8.35815 143.315 main 1232 1232 P________PP___ WP281979 8.34991 143.315 15 -1 8.34991 143.315 TC 15 8.37465 143.316 1 12 283
1979350N07153 1979 116 WP MM BEN 1979-12-18 12:00:00 TS 8.50000 142.700 main 1236 1222 O________OO___ jtwc_wp WP281979 8.50000 142.700 15 -1 8.50000 142.700 TC 15 8.50000 142.700 1 13 281
1979350N07153 1979 116 WP MM BEN 1979-12-18 15:00:00 TS 8.60275 142.065 main 1222 1207 P________PP___ WP281979 8.59989 142.065 15 -1 8.59989 142.065 TC 15 8.60848 142.066 1 13 279
1979350N07153 1979 116 WP MM BEN 1979-12-18 18:00:00 TS 8.70653 141.401 main 1207 1197 O________OP___ jtwc_wp WP281979 8.70000 141.400 15 -1 8.70000 141.400 TC 15 8.71958 141.402 1 14 280
1979350N07153 1979 116 WP MM BEN 1979-12-18 21:00:00 TS 8.83857 140.709 main 1197 1186 P________PP___ WP281979 8.83491 140.707 15 -1 8.83491 140.707 TC 15 8.84588 140.712 1 14 282
1979350N07153 1979 116 WP MM BEN 1979-12-19 00:00:00 TS 9.00000 140.000 main 1188 1178 O________OO___ jtwc_wp WP281979 9.00000 140.000 15 -1 9.00000 140.000 TC 15 9.00000 140.000 1 14 284
1979350N07153 1979 116 WP MM BEN 1979-12-19 03:00:00 TS 9.18717 139.300 main 1182 1175 P________PP___ WP281979 9.18478 139.315 15 -1 9.18478 139.315 TC 15 9.19194 139.272 1 15 286
1979350N07153 1979 116 WP MM BEN 1979-12-19 06:00:00 TS 9.40405 138.574 main 1179 1173 O________OP___ jtwc_wp WP281979 9.40000 138.600 15 -1 9.40000 138.600 TC 15 9.41216 138.522 1 16 287
1979350N07153 1979 116 WP MM BEN 1979-12-19 09:00:00 TS 9.64540 137.792 main 1179 1169 P________PP___ WP281979 9.64247 137.807 15 -1 9.64247 137.807 TC 15 9.65127 137.762 1 16 288
1979350N07153 1979 116 WP MM BEN 1979-12-19 12:00:00 TS 9.90000 137.000 main 1169 1099 O________OO___ jtwc_wp WP281979 9.90000 137.000 15 -1 9.90000 137.000 TC 15 9.90000 137.000 1 15 16 288
1979350N07153 1979 116 WP MM BEN 1979-12-19 15:00:00 TS 10.1513 136.248 main 1091 1023 P________PP___ WP281979 10.1498 136.242 15 -1 10.1498 136.242 TC 15 10.1544 136.258 1 16 16 289
1979350N07153 1979 116 WP MM BEN 1979-12-19 18:00:00 TS 10.4047 135.505 main 1023 953 O________OP___ jtwc_wp WP281979 10.4000 135.500 15 -1 10.4000 135.500 TC 15 10.4141 135.515 1 17 16 289
1979350N07153 1979 116 WP MM BEN 1979-12-19 21:00:00 TS 10.6605 134.755 main 956 875 P________PP___ WP281979 10.6573 134.750 17 -1 10.6573 134.750 TC 17 10.6668 134.764 1 18 16 289
1979350N07153 1979 116 WP MM BEN 1979-12-20 00:00:00 TS 10.9000 134.000 main 875 806 O________OO___ jtwc_wp WP281979 10.9000 134.000 20 -1 10.9000 134.000 TC 20 10.9000 134.000 1 20 16 287
1979350N07153 1979 116 WP MM BEN 1979-12-20 03:00:00 TS 11.1193 133.248 main 795 728 P________PP___ WP281979 11.1147 133.265 20 -1 11.1147 133.265 TC 20 11.1286 133.215 1 21 15 285
1979350N07153 1979 116 WP MM BEN 1979-12-20 06:00:00 TS 11.2867 132.482 1006 tokyo main 728 656 OO_______OP___ jtwc_wp WP281979 11.3000 132.500 20 -1 11.0000 132.600 2 1006 0 0 0 11.3000 132.500 TC 20 11.3319 132.415 1 22 15 282
1979350N07153 1979 116 WP MM BEN 1979-12-20 09:00:00 TS 11.4476 131.714 main 645 571 PP_______PP___ WP281979 11.4799 131.658 22 -1 11.2251 132.150 2 1006 0 0 11.4799 131.658 TC 22 11.4942 131.608 1 23 15 281
1979350N07153 1979 116 WP MM BEN 1979-12-20 12:00:00 TS 11.5800 130.960 1006 tokyo main 571 497 OO_______OO___ jtwc_wp WP281979 11.6000 130.800 25 -1 11.5000 131.600 2 1006 0 0 0 11.6000 130.800 TC 25 11.6000 130.800 1 25 15 279
1979350N07153 1979 116 WP MM BEN 1979-12-20 15:00:00 TS 11.6749 130.216 main 486 400 PP_______PP___ WP281979 11.6297 129.992 27 -1 11.8248 130.876 2 1006 0 0 11.6297 129.992 TC 27 11.6155 130.003 1 28 16 274
1979350N07153 1979 116 WP MM BEN 1979-12-20 18:00:00 TS 11.6833 129.331 1006 tokyo main 389 302 OOO______OP___ jtwc_wp WP281979 11.6000 129.200 30 -1 12.0000 130.000 2 1006 0 0 0 11.5000 128.200 2 38 1000 11.6000 129.200 TC 30 11.5790 129.206 1 32 17 267
1979350N07153 1979 116 WP MM BEN 1979-12-20 21:00:00 TS 11.5972 128.461 main 302 204 PPP______PP___ WP281979 11.5573 128.400 35 0 11.7949 129.029 2 1006 0 0 11.4951 127.680 2 43 998 11.5573 128.400 TC 35 11.5280 128.406 1 36 17 264
1979350N07153 1979 116 WP MM BEN 1979-12-21 00:00:00 TS 11.5000 127.575 1006 tokyo main 204 122 OOOO_____OO___ jtwc_wp WP281979 11.5000 127.600 40 0 11.5000 128.000 2 1006 0 0 0 11.5000 127.100 3 48 996 11.5000 127.000 TS 40 1000 11.5000 127.600 TC 40 11.5000 127.600 2 40 17 265
1979350N07153 1979 116 WP MM BEN 1979-12-21 03:00:00 TS 11.4559 126.726 main 113 45 PPPP_____PP___ WP281979 11.4122 126.807 45 0 11.3900 126.963 2 1001 0 0 11.5275 126.422 3 48 996 11.4875 126.492 TS 42 997 11.4122 126.807 TC 45 11.5219 126.750 2 40 16 269
1979350N07153 1979 116 WP MM BEN 1979-12-21 06:00:00 TS 11.4783 125.917 40 996 tokyo main 34 0 OOOO_____OP___ jtwc_wp WP281979 11.4000 126.000 50 0 11.4000 126.000 3 40 996 0 9 30 30 0 11.6000 125.700 3 48 996 11.5000 125.900 TS 45 995 11.4000 126.000 TC 50 11.5751 125.897 2 40 16 275
1979350N07153 1979 116 WP MM BEN 1979-12-21 09:00:00 TS 11.6001 125.117 main 0 0 PPPP_____PP___ WP281979 11.5626 125.128 45 0 11.5195 125.213 3 42 996 0 9 50 50 11.7274 124.993 3 48 996 11.5626 125.172 TS 47 995 11.5626 125.128 TC 45 11.6657 125.071 2 40 16 281
1979350N07153 1979 116 WP MM BEN 1979-12-21 12:00:00 TS 11.7833 124.350 45 996 tokyo main 33 0 OOOO_____OO___ jtwc_wp WP281979 11.8000 124.300 40 0 11.7000 124.500 3 45 996 0 9 70 70 0 11.9000 124.300 3 48 996 11.7000 124.400 STS 50 995 11.8000 124.300 TC 40 11.8000 124.300 2 40 15 284
1979350N07153 1979 116 WP MM BEN 1979-12-21 15:00:00 TS 11.9698 123.656 main 10 0 PPPP_____PP___ WP281979 11.9922 123.612 40 0 11.8348 123.750 3 42 996 0 9 70 70 12.0921 123.665 3 48 996 11.9348 123.685 STS 50 995 11.9922 123.612 TC 40 11.9727 123.614 2 41 14 287
1979350N07153 1979 116 WP MM BEN 1979-12-21 18:00:00 TS 12.1814 122.997 40 996 tokyo main 21 21 OOOO_____OP___ jtwc_wp WP281979 12.2000 123.000 40 0 12.0000 123.000 3 40 996 0 9 70 70 0 12.3000 123.000 3 48 996 12.2000 123.000 STS 50 995 12.2000 123.000 TC 40 12.1887 122.983 2 42 14 289
1979350N07153 1979 116 WP MM BEN 1979-12-21 21:00:00 TS 12.4091 122.326 main 68 10 PPPP_____PP___ WP281979 12.4573 122.400 42 0 12.2349 122.235 3 42 995 0 9 72 72 12.4777 122.192 3 48 996 12.3923 122.342 STS 50 995 12.4573 122.400 TC 42 12.4353 122.385 2 43 14 290
1979350N07153 1979 116 WP MM BEN 1979-12-22 00:00:00 TS 12.6500 121.667 45 994 tokyo main 15 0 OOOO_____OO___ jtwc_wp WP281979 12.7000 121.800 45 0 12.5000 121.500 3 45 994 0 9 75 75 0 12.7000 121.400 3 48 996 12.6000 121.700 STS 50 995 12.7000 121.800 TC 45 12.7000 121.800 2 45 14 290
1979350N07153 1979 116 WP MM BEN 1979-12-22 03:00:00 TS 12.8737 120.994 main 0 0 PPPP_____PP___ WP281979 12.8275 121.142 47 0 12.7350 120.790 3 42 994 0 9 75 75 13.0348 120.740 3 48 996 12.8848 121.057 STS 50 995 12.8275 121.142 TC 47 12.9328 121.092 2 47 14 291
1979350N07153 1979 116 WP MM BEN 1979-12-22 06:00:00 TS 13.1306 120.368 40 994 tokyo main 15 15 OOOO_____OP___ jtwc_wp WP281979 13.0000 120.500 50 0 13.0000 120.200 3 40 994 0 9 75 75 0 13.4000 120.200 3 48 996 13.2000 120.400 STS 50 995 13.0000 120.500 TC 50 13.1835 120.406 2 50 13 296
1979350N07153 1979 116 WP MM BEN 1979-12-22 09:00:00 TS 13.4458 119.782 main 54 54 PPPP_____PP___ WP281979 13.3626 119.868 52 0 13.3198 119.767 3 40 994 0 9 87 87 13.6774 119.717 3 48 996 13.4852 119.655 STS 50 995 13.3626 119.868 TC 52 13.4673 119.817 2 52 12 305
1979350N07153 1979 116 WP MM BEN 1979-12-22 12:00:00 TS 13.8167 119.350 40 994 tokyo main 107 107 OOOO_____OO___ jtwc_wp WP281979 13.8000 119.400 55 0 13.7000 119.500 3 40 994 0 9 100 100 0 14.0000 119.400 3 48 996 13.8000 119.000 STS 50 995 13.8000 119.400 TC 55 13.8000 119.400 2 55 10 319
1979350N07153 1979 116 WP MM BEN 1979-12-22 15:00:00 TS 14.2062 119.096 main 126 116 PPPP_____PP___ WP281979 14.1848 119.195 57 0 14.1274 119.333 3 40 994 0 9 100 100 14.4699 119.275 3 48 996 14.1622 118.485 STS 50 995 14.1848 119.195 TC 57 14.1082 119.095 2 55 9 341
1979350N07153 1979 116 WP MM BEN 1979-12-22 18:00:00 TS 14.6465 119.047 40 994 tokyo main 120 92 OOOO_____OP___ jtwc_wp WP281979 14.6000 119.200 60 0 14.6000 119.300 3 40 994 0 9 100 100 0 15.0000 119.300 3 48 996 14.6000 118.300 STS 50 995 14.6000 119.200 TC 60 14.4792 118.984 2 55 9 2
1979350N07153 1979 116 WP MM BEN 1979-12-22 21:00:00 TS 15.1054 119.129 main 92 54 PPPP_____PP___ WP281979 15.0096 119.224 57 0 15.0625 119.348 3 42 994 0 9 75 75 15.4397 119.296 3 43 998 15.1501 118.579 STS 50 995 15.0096 119.224 TC 57 14.9606 119.107 2 55 11 20
1979350N07153 1979 116 WP MM BEN 1979-12-23 00:00:00 TS 15.6833 119.433 45 994 tokyo main 46 0 OOOO_____OO___ jtwc_wp WP281979 15.6000 119.500 55 0 15.6000 119.500 3 45 994 0 9 50 50 0 16.0000 119.500 2 38 1000 15.7000 119.100 STS 50 995 15.6000 119.500 TC 55 15.6000 119.500 2 55 15 29
1979350N07153 1979 116 WP MM BEN 1979-12-23 03:00:00 TS 16.4160 119.890 main 11 0 PPPP_____PP___ WP281979 16.5246 120.093 45 0 16.2016 119.602 3 45 995 0 9 50 50 16.8471 120.000 2 33 1002 15.9704 119.367 STS 45 997 16.5246 120.093 TC 45 16.4275 120.187 2 47 20 36
1979350N07153 1979 116 WP MM BEN 1979-12-23 06:00:00 TS 17.3177 120.652 45 996 tokyo main 0 0 OOOO_____OP___ jtwc_wp WP281979 17.6000 121.000 35 0 17.0000 120.000 3 45 996 0 9 50 50 0 17.8000 120.800 1 29 1004 16.5000 120.000 TS 40 1000 17.6000 121.000 TC 35 17.4062 121.115 2 40 27 43
1979350N07153 1979 116 WP MM BEN 1979-12-23 09:00:00 TS 18.3647 121.776 main 11 11 PPPP_____PP___ WP281979 18.6269 122.137 30 -1 18.0726 120.932 3 1000 0 9 18.6817 121.835 1 24 1005 17.6983 121.401 TS 32 1002 18.6269 122.137 TC 30 18.4818 122.211 2 32 32 47
1979350N07153 1979 116 WP MM BEN 1979-12-23 12:00:00 TS 19.4833 123.117 1004 tokyo main 149 OOOO_____OO___ jtwc_wp WP281979 19.6000 123.400 25 -1 19.3000 122.200 2 1004 0 0 0 19.5000 123.000 0 19 1007 19.3000 123.300 TD 25 1004 19.6000 123.400 TC 25 19.6000 123.400 2 25 34 48

Digital Typhoon Data and Search

About IBTrACS Database

This database is a web-friendly format of International Best Track Archive for Climate Stewardship (IBTrACS), a global best track data archive curated by NOAA dating back to 1842.

Updated: 2021-10-19